sensor_id;sensor_type;location;lat;lon;timestamp;pressure;altitude;pressure_sealevel;temperature;humidity
62038;BME280;47991;42.974;12.082;2023-05-11T15:21:26;97189.21;;;16.27;72.37
62038;BME280;47991;42.974;12.082;2023-05-11T15:23:53;97179.95;;;16.21;72.27
62038;BME280;47991;42.974;12.082;2023-05-11T15:26:20;97177.95;;;16.19;72.13
62038;BME280;47991;42.974;12.082;2023-05-11T15:28:48;97176.30;;;16.19;72.60
62038;BME280;47991;42.974;12.082;2023-05-11T15:31:15;97183.02;;;16.14;72.42
62038;BME280;47991;42.974;12.082;2023-05-11T15:33:42;97188.02;;;16.12;72.37
62038;BME280;47991;42.974;12.082;2023-05-11T15:36:13;97193.10;;;16.10;72.56
62038;BME280;47991;42.974;12.082;2023-05-11T15:38:41;97199.11;;;16.08;72.74
62038;BME280;47991;42.974;12.082;2023-05-11T15:41:08;97206.61;;;16.01;72.84
62038;BME280;47991;42.974;12.082;2023-05-11T15:43:35;97212.67;;;15.89;73.00
62038;BME280;47991;42.974;12.082;2023-05-11T15:46:02;97215.48;;;15.81;72.99
62038;BME280;47991;42.974;12.082;2023-05-11T15:48:30;97213.52;;;15.74;72.89
62038;BME280;47991;42.974;12.082;2023-05-11T15:51:00;97219.11;;;15.60;73.04
62038;BME280;47991;42.974;12.082;2023-05-11T15:53:27;97211.61;;;15.48;73.20
62038;BME280;47991;42.974;12.082;2023-05-11T15:55:54;97205.84;;;15.37;72.86
62038;BME280;47991;42.974;12.082;2023-05-11T15:58:21;97199.69;;;15.32;73.07
62038;BME280;47991;42.974;12.082;2023-05-11T16:00:49;97189.04;;;15.25;73.01
62038;BME280;47991;42.974;12.082;2023-05-11T16:03:16;97192.20;;;15.23;73.14
62038;BME280;47991;42.974;12.082;2023-05-11T16:05:42;97204.92;;;15.25;72.93
62038;BME280;47991;42.974;12.082;2023-05-11T16:08:10;97214.77;;;15.30;72.92
62038;BME280;47991;42.974;12.082;2023-05-11T16:10:37;97216.30;;;15.38;72.90
62038;BME280;47991;42.974;12.082;2023-05-11T16:13:04;97217.24;;;15.46;73.17
62038;BME280;47991;42.974;12.082;2023-05-11T16:15:31;97214.76;;;15.56;73.13
62038;BME280;47991;42.974;12.082;2023-05-11T16:17:58;97213.23;;;15.61;72.74
62038;BME280;47991;42.974;12.082;2023-05-11T16:20:25;97212.39;;;15.60;72.77
62038;BME280;47991;42.974;12.082;2023-05-11T16:22:52;97208.23;;;15.55;73.17
62038;BME280;47991;42.974;12.082;2023-05-11T16:25:19;97208.60;;;15.54;73.11
62038;BME280;47991;42.974;12.082;2023-05-11T16:27:46;97219.30;;;15.57;72.96
62038;BME280;47991;42.974;12.082;2023-05-11T16:30:13;97215.69;;;15.58;72.79
62038;BME280;47991;42.974;12.082;2023-05-11T16:32:40;97214.12;;;15.61;72.93
62038;BME280;47991;42.974;12.082;2023-05-11T16:35:09;97212.41;;;15.75;72.79
62038;BME280;47991;42.974;12.082;2023-05-11T16:37:35;97213.96;;;16.07;72.10
62038;BME280;47991;42.974;12.082;2023-05-11T16:40:03;97215.79;;;16.27;71.14
62038;BME280;47991;42.974;12.082;2023-05-11T16:42:30;97214.45;;;16.22;71.53
62038;BME280;47991;42.974;12.082;2023-05-11T16:44:57;97207.02;;;16.27;71.71
62038;BME280;47991;42.974;12.082;2023-05-11T16:47:24;97199.54;;;16.21;72.11
62038;BME280;47991;42.974;12.082;2023-05-11T16:49:51;97193.81;;;16.10;72.25
62038;BME280;47991;42.974;12.082;2023-05-11T16:52:18;97200.23;;;16.03;72.30
62038;BME280;47991;42.974;12.082;2023-05-11T16:54:45;97208.52;;;15.99;72.63
62038;BME280;47991;42.974;12.082;2023-05-11T16:57:11;97213.40;;;15.93;72.67
62038;BME280;47991;42.974;12.082;2023-05-11T16:59:38;97214.13;;;15.86;72.58
62038;BME280;47991;42.974;12.082;2023-05-11T17:02:05;97218.86;;;15.75;72.80
62038;BME280;47991;42.974;12.082;2023-05-11T17:04:32;97217.84;;;15.61;72.78
62038;BME280;47991;42.974;12.082;2023-05-11T17:06:59;97223.05;;;15.47;73.12
62038;BME280;47991;42.974;12.082;2023-05-11T17:09:26;97219.61;;;15.39;73.00
62038;BME280;47991;42.974;12.082;2023-05-11T17:11:54;97211.34;;;15.31;73.06
62038;BME280;47991;42.974;12.082;2023-05-11T17:14:21;97203.52;;;15.25;73.26
62038;BME280;47991;42.974;12.082;2023-05-11T17:16:47;97194.70;;;15.16;73.44
62038;BME280;47991;42.974;12.082;2023-05-11T17:19:14;97196.60;;;15.11;73.36
62038;BME280;47991;42.974;12.082;2023-05-11T17:21:41;97203.79;;;15.07;73.85
62038;BME280;47991;42.974;12.082;2023-05-11T17:24:08;97208.93;;;15.07;73.62
62038;BME280;47991;42.974;12.082;2023-05-11T17:26:35;97208.31;;;15.02;73.49
62038;BME280;47991;42.974;12.082;2023-05-11T17:29:02;97204.07;;;14.92;73.80
62038;BME280;47991;42.974;12.082;2023-05-11T17:31:29;97208.13;;;14.86;74.06
62038;BME280;47991;42.974;12.082;2023-05-11T17:33:56;97208.73;;;14.82;74.19
62038;BME280;47991;42.974;12.082;2023-05-11T17:36:23;97214.80;;;14.74;74.19
62038;BME280;47991;42.974;12.082;2023-05-11T17:38:50;97224.26;;;14.71;74.41
62038;BME280;47991;42.974;12.082;2023-05-11T17:41:17;97230.67;;;14.74;74.23
62038;BME280;47991;42.974;12.082;2023-05-11T17:43:44;97227.80;;;14.71;74.44
62038;BME280;47991;42.974;12.082;2023-05-11T17:46:13;97229.73;;;14.65;74.45
62038;BME280;47991;42.974;12.082;2023-05-11T17:48:40;97236.67;;;14.58;74.59
62038;BME280;47991;42.974;12.082;2023-05-11T17:51:10;97240.85;;;14.49;74.93
62038;BME280;47991;42.974;12.082;2023-05-11T17:53:38;97251.19;;;14.41;76.02
62038;BME280;47991;42.974;12.082;2023-05-11T17:56:05;97259.05;;;14.37;75.19
62038;BME280;47991;42.974;12.082;2023-05-11T17:58:35;97254.74;;;14.31;75.42
62038;BME280;47991;42.974;12.082;2023-05-11T18:01:09;97260.14;;;14.24;75.92
62038;BME280;47991;42.974;12.082;2023-05-11T18:03:36;97273.67;;;14.23;76.14
62038;BME280;47991;42.974;12.082;2023-05-11T18:06:03;97286.70;;;14.26;76.14
62038;BME280;47991;42.974;12.082;2023-05-11T18:08:30;97289.42;;;14.24;76.33
62038;BME280;47991;42.974;12.082;2023-05-11T18:10:58;97293.29;;;14.22;76.55
62038;BME280;47991;42.974;12.082;2023-05-11T18:13:25;97285.65;;;14.21;76.62
62038;BME280;47991;42.974;12.082;2023-05-11T18:15:57;97286.13;;;14.16;76.84
62038;BME280;47991;42.974;12.082;2023-05-11T18:18:25;97291.63;;;14.12;76.88
62038;BME280;47991;42.974;12.082;2023-05-11T18:20:51;97296.47;;;14.08;76.96
62038;BME280;47991;42.974;12.082;2023-05-11T18:23:19;97299.94;;;14.06;77.22
62038;BME280;47991;42.974;12.082;2023-05-11T18:25:46;97308.61;;;13.99;77.06
62038;BME280;47991;42.974;12.082;2023-05-11T18:28:13;97310.05;;;13.99;77.41
62038;BME280;47991;42.974;12.082;2023-05-11T18:30:40;97311.34;;;14.02;77.37
62038;BME280;47991;42.974;12.082;2023-05-11T18:33:07;97309.30;;;14.03;77.38
62038;BME280;47991;42.974;12.082;2023-05-11T18:35:34;97308.79;;;14.03;77.46
62038;BME280;47991;42.974;12.082;2023-05-11T18:38:01;97306.05;;;14.01;77.37
62038;BME280;47991;42.974;12.082;2023-05-11T18:40:30;97304.10;;;14.01;77.55
62038;BME280;47991;42.974;12.082;2023-05-11T18:42:56;97303.82;;;14.07;77.59
62038;BME280;47991;42.974;12.082;2023-05-11T18:45:23;97304.28;;;14.12;77.43
62038;BME280;47991;42.974;12.082;2023-05-11T18:47:50;97298.33;;;14.14;77.40
62038;BME280;47991;42.974;12.082;2023-05-11T18:50:17;97291.14;;;14.15;77.24
62038;BME280;47991;42.974;12.082;2023-05-11T18:52:44;97295.54;;;14.12;77.38
62038;BME280;47991;42.974;12.082;2023-05-11T18:55:10;97294.59;;;14.10;77.41
62038;BME280;47991;42.974;12.082;2023-05-11T18:57:37;97296.55;;;14.06;77.65
62038;BME280;47991;42.974;12.082;2023-05-11T19:00:06;97298.13;;;13.99;77.53
62038;BME280;47991;42.974;12.082;2023-05-11T19:02:33;97301.17;;;13.92;77.81
62038;BME280;47991;42.974;12.082;2023-05-11T19:05:00;97300.70;;;13.84;77.86
62038;BME280;47991;42.974;12.082;2023-05-11T19:07:27;97312.12;;;13.78;78.01
62038;BME280;47991;42.974;12.082;2023-05-11T19:09:54;97329.54;;;13.74;78.18
62038;BME280;47991;42.974;12.082;2023-05-11T19:12:21;97340.81;;;13.73;78.14
62038;BME280;47991;42.974;12.082;2023-05-11T19:14:48;97351.25;;;13.71;78.27
62038;BME280;47991;42.974;12.082;2023-05-11T19:17:14;97358.40;;;13.73;78.38
62038;BME280;47991;42.974;12.082;2023-05-11T19:19:41;97356.14;;;13.76;78.38
62038;BME280;47991;42.974;12.082;2023-05-11T19:22:08;97353.92;;;13.77;78.38
62038;BME280;47991;42.974;12.082;2023-05-11T19:24:35;97361.79;;;13.77;78.38
62038;BME280;47991;42.974;12.082;2023-05-11T19:27:02;97369.31;;;13.75;78.52
62038;BME280;47991;42.974;12.082;2023-05-11T19:29:29;97370.25;;;13.78;78.29
62038;BME280;47991;42.974;12.082;2023-05-11T19:31:56;97371.33;;;13.78;78.25
62038;BME280;47991;42.974;12.082;2023-05-11T19:34:23;97374.38;;;13.80;78.17
62038;BME280;47991;42.974;12.082;2023-05-11T19:36:50;97371.32;;;13.85;78.15
62038;BME280;47991;42.974;12.082;2023-05-11T19:39:17;97374.92;;;13.88;78.02
62038;BME280;47991;42.974;12.082;2023-05-11T19:41:43;97378.11;;;13.88;77.75
62038;BME280;47991;42.974;12.082;2023-05-11T19:44:11;97372.33;;;13.87;77.65
62038;BME280;47991;42.974;12.082;2023-05-11T19:46:38;97379.55;;;13.80;77.77
62038;BME280;47991;42.974;12.082;2023-05-11T19:49:15;97379.05;;;13.79;77.85
62038;BME280;47991;42.974;12.082;2023-05-11T19:51:43;97379.78;;;13.79;77.67
62038;BME280;47991;42.974;12.082;2023-05-11T19:54:10;97384.66;;;13.81;77.95
62038;BME280;47991;42.974;12.082;2023-05-11T19:56:36;97386.58;;;13.86;77.75
62038;BME280;47991;42.974;12.082;2023-05-11T19:59:04;97385.59;;;13.88;77.73
62038;BME280;47991;42.974;12.082;2023-05-11T20:01:31;97394.00;;;13.90;77.52
62038;BME280;47991;42.974;12.082;2023-05-11T20:03:58;97394.66;;;13.88;77.51
62038;BME280;47991;42.974;12.082;2023-05-11T20:06:25;97401.30;;;13.87;77.52
62038;BME280;47991;42.974;12.082;2023-05-11T20:08:52;97411.14;;;13.89;77.50
62038;BME280;47991;42.974;12.082;2023-05-11T20:11:19;97414.38;;;13.88;77.50
62038;BME280;47991;42.974;12.082;2023-05-11T20:13:47;97418.08;;;13.81;77.78
62038;BME280;47991;42.974;12.082;2023-05-11T20:16:14;97425.13;;;13.75;77.76
62038;BME280;47991;42.974;12.082;2023-05-11T20:18:41;97423.70;;;13.67;77.94
62038;BME280;47991;42.974;12.082;2023-05-11T20:21:08;97425.90;;;13.58;78.18
62038;BME280;47991;42.974;12.082;2023-05-11T20:23:34;97430.23;;;13.56;78.16
62038;BME280;47991;42.974;12.082;2023-05-11T20:26:02;97436.45;;;13.56;78.07
62038;BME280;47991;42.974;12.082;2023-05-11T20:28:29;97436.22;;;13.57;78.08
62038;BME280;47991;42.974;12.082;2023-05-11T20:30:56;97438.52;;;13.58;78.14
62038;BME280;47991;42.974;12.082;2023-05-11T20:33:22;97443.16;;;13.57;78.21
62038;BME280;47991;42.974;12.082;2023-05-11T20:35:49;97452.89;;;13.58;78.26
62038;BME280;47991;42.974;12.082;2023-05-11T20:38:16;97457.20;;;13.61;78.26
62038;BME280;47991;42.974;12.082;2023-05-11T20:40:43;97457.46;;;13.63;78.26
62038;BME280;47991;42.974;12.082;2023-05-11T20:43:09;97463.83;;;13.63;78.21
62038;BME280;47991;42.974;12.082;2023-05-11T20:45:36;97457.48;;;13.62;78.18
62038;BME280;47991;42.974;12.082;2023-05-11T20:48:03;97445.74;;;13.59;78.42
62038;BME280;47991;42.974;12.082;2023-05-11T20:50:30;97420.36;;;13.51;78.75
62038;BME280;47991;42.974;12.082;2023-05-11T20:52:57;97423.02;;;13.35;79.16
62038;BME280;47991;42.974;12.082;2023-05-11T20:55:24;97413.95;;;13.23;79.38
62038;BME280;47991;42.974;12.082;2023-05-11T20:57:51;97423.20;;;13.19;79.46
62038;BME280;47991;42.974;12.082;2023-05-11T21:00:18;97428.00;;;13.18;79.45
62038;BME280;47991;42.974;12.082;2023-05-11T21:02:46;97428.13;;;13.16;79.50
62038;BME280;47991;42.974;12.082;2023-05-11T21:05:13;97427.80;;;13.15;79.32
62038;BME280;47991;42.974;12.082;2023-05-11T21:07:40;97432.66;;;13.09;79.62
62038;BME280;47991;42.974;12.082;2023-05-11T21:10:09;97435.92;;;13.03;79.52
62038;BME280;47991;42.974;12.082;2023-05-11T21:12:35;97432.40;;;13.03;79.86
62038;BME280;47991;42.974;12.082;2023-05-11T21:15:02;97435.84;;;13.02;79.61
62038;BME280;47991;42.974;12.082;2023-05-11T21:17:30;97436.09;;;13.00;79.86
62038;BME280;47991;42.974;12.082;2023-05-11T21:19:56;97438.55;;;13.00;79.89
62038;BME280;47991;42.974;12.082;2023-05-11T21:22:23;97434.02;;;13.02;79.73
62038;BME280;47991;42.974;12.082;2023-05-11T21:24:50;97430.88;;;13.05;79.59
62038;BME280;47991;42.974;12.082;2023-05-11T21:27:17;97430.34;;;13.05;79.76
62038;BME280;47991;42.974;12.082;2023-05-11T21:29:44;97426.16;;;13.03;79.69
62038;BME280;47991;42.974;12.082;2023-05-11T21:32:11;97427.08;;;13.03;79.68
62038;BME280;47991;42.974;12.082;2023-05-11T21:34:37;97424.16;;;13.01;79.72
62038;BME280;47991;42.974;12.082;2023-05-11T21:37:04;97419.11;;;12.98;79.48
62038;BME280;47991;42.974;12.082;2023-05-11T21:39:31;97418.86;;;12.92;79.43
62038;BME280;47991;42.974;12.082;2023-05-11T21:41:57;97419.35;;;12.81;79.85
62038;BME280;47991;42.974;12.082;2023-05-11T21:44:24;97418.38;;;12.70;80.05
62038;BME280;47991;42.974;12.082;2023-05-11T21:46:51;97416.02;;;12.62;80.16
62038;BME280;47991;42.974;12.082;2023-05-11T21:49:18;97416.58;;;12.62;80.34
62038;BME280;47991;42.974;12.082;2023-05-11T21:51:45;97416.59;;;12.62;80.48
62038;BME280;47991;42.974;12.082;2023-05-11T21:54:12;97418.60;;;12.65;80.25
62038;BME280;47991;42.974;12.082;2023-05-11T21:56:38;97417.86;;;12.65;80.15
62038;BME280;47991;42.974;12.082;2023-05-11T21:59:05;97415.11;;;12.63;80.12
62038;BME280;47991;42.974;12.082;2023-05-11T22:01:32;97414.15;;;12.61;80.13
62038;BME280;47991;42.974;12.082;2023-05-11T22:03:58;97413.15;;;12.60;80.38
62038;BME280;47991;42.974;12.082;2023-05-11T22:06:26;97408.42;;;12.58;80.41
62038;BME280;47991;42.974;12.082;2023-05-11T22:08:53;97405.30;;;12.56;80.31
62038;BME280;47991;42.974;12.082;2023-05-11T22:11:19;97405.51;;;12.56;80.30
62038;BME280;47991;42.974;12.082;2023-05-11T22:13:46;97410.45;;;12.56;80.29
62038;BME280;47991;42.974;12.082;2023-05-11T22:16:13;97411.35;;;12.51;80.42
62038;BME280;47991;42.974;12.082;2023-05-11T22:18:40;97415.52;;;12.49;80.49
62038;BME280;47991;42.974;12.082;2023-05-11T22:21:06;97415.70;;;12.49;80.64
62038;BME280;47991;42.974;12.082;2023-05-11T22:23:33;97410.19;;;12.49;80.82
62038;BME280;47991;42.974;12.082;2023-05-11T22:26:01;97415.07;;;12.47;80.64
62038;BME280;47991;42.974;12.082;2023-05-11T22:28:29;97414.30;;;12.45;80.59
62038;BME280;47991;42.974;12.082;2023-05-11T22:30:59;97411.20;;;12.42;80.82
62038;BME280;47991;42.974;12.082;2023-05-11T22:33:25;97417.21;;;12.43;80.88
62038;BME280;47991;42.974;12.082;2023-05-11T22:35:52;97422.04;;;12.42;80.69
62038;BME280;47991;42.974;12.082;2023-05-11T22:38:19;97420.41;;;12.42;80.66
62038;BME280;47991;42.974;12.082;2023-05-11T22:40:46;97417.84;;;12.40;81.08
62038;BME280;47991;42.974;12.082;2023-05-11T22:43:13;97419.92;;;12.41;80.82
62038;BME280;47991;42.974;12.082;2023-05-11T22:45:40;97417.69;;;12.40;80.90
62038;BME280;47991;42.974;12.082;2023-05-11T22:48:07;97417.90;;;12.39;80.78
62038;BME280;47991;42.974;12.082;2023-05-11T22:50:33;97422.54;;;12.38;80.81
62038;BME280;47991;42.974;12.082;2023-05-11T22:53:01;97422.56;;;12.37;80.65
62038;BME280;47991;42.974;12.082;2023-05-11T22:55:32;97422.84;;;12.35;80.78
62038;BME280;47991;42.974;12.082;2023-05-11T22:57:59;97418.10;;;12.34;80.91
62038;BME280;47991;42.974;12.082;2023-05-11T23:00:26;97420.23;;;12.34;80.90
62038;BME280;47991;42.974;12.082;2023-05-11T23:02:52;97426.11;;;12.33;81.08
62038;BME280;47991;42.974;12.082;2023-05-11T23:05:19;97427.26;;;12.31;80.94
62038;BME280;47991;42.974;12.082;2023-05-11T23:07:46;97425.89;;;12.30;81.08
62038;BME280;47991;42.974;12.082;2023-05-11T23:10:13;97425.46;;;12.32;81.16
62038;BME280;47991;42.974;12.082;2023-05-11T23:12:40;97430.20;;;12.33;81.06
62038;BME280;47991;42.974;12.082;2023-05-11T23:15:07;97428.48;;;12.31;81.21
62038;BME280;47991;42.974;12.082;2023-05-11T23:17:35;97429.64;;;12.33;81.43
62038;BME280;47991;42.974;12.082;2023-05-11T23:20:01;97428.54;;;12.34;81.32
62038;BME280;47991;42.974;12.082;2023-05-11T23:22:28;97425.02;;;12.34;81.26
62038;BME280;47991;42.974;12.082;2023-05-11T23:24:55;97423.20;;;12.30;81.30
62038;BME280;47991;42.974;12.082;2023-05-11T23:27:22;97423.98;;;12.29;81.51
62038;BME280;47991;42.974;12.082;2023-05-11T23:29:50;97423.77;;;12.29;81.56
62038;BME280;47991;42.974;12.082;2023-05-11T23:32:17;97422.61;;;12.27;81.62
62038;BME280;47991;42.974;12.082;2023-05-11T23:34:43;97424.10;;;12.26;81.81
62038;BME280;47991;42.974;12.082;2023-05-11T23:37:10;97425.64;;;12.27;81.72
62038;BME280;47991;42.974;12.082;2023-05-11T23:39:37;97421.90;;;12.27;81.62
62038;BME280;47991;42.974;12.082;2023-05-11T23:42:04;97418.80;;;12.25;81.62
62038;BME280;47991;42.974;12.082;2023-05-11T23:44:31;97418.11;;;12.25;81.81
62038;BME280;47991;42.974;12.082;2023-05-11T23:47:00;97418.07;;;12.26;81.85
62038;BME280;47991;42.974;12.082;2023-05-11T23:49:27;97417.42;;;12.24;81.67
62038;BME280;47991;42.974;12.082;2023-05-11T23:51:54;97419.79;;;12.18;81.90
62038;BME280;47991;42.974;12.082;2023-05-11T23:54:21;97418.92;;;12.13;81.89
62038;BME280;47991;42.974;12.082;2023-05-11T23:56:47;97425.60;;;12.11;81.82
62038;BME280;47991;42.974;12.082;2023-05-11T23:59:14;97422.79;;;12.10;81.70
